createdAt,value
2017-12-03T00:01:26.377Z,94
2017-12-03T00:02:26.658Z,94
2017-12-03T00:03:26.004Z,94
2017-12-03T00:04:33.825Z,94
2017-12-03T00:05:27.547Z,94
2017-12-03T00:07:25.515Z,94
2017-12-03T00:08:28.060Z,94
2017-12-03T00:09:28.926Z,94
2017-12-03T00:10:27.737Z,94
2017-12-03T00:11:25.835Z,94
2017-12-03T00:12:26.129Z,94
2017-12-03T00:14:27.601Z,94
2017-12-03T00:15:26.407Z,94
2017-12-03T00:16:27.058Z,94
2017-12-03T00:17:25.830Z,94
2017-12-03T00:18:25.323Z,94
2017-12-03T00:19:26.305Z,94
2017-12-03T00:20:26.684Z,94
2017-12-03T00:21:27.134Z,94
2017-12-03T00:22:25.493Z,94
2017-12-03T00:23:25.744Z,94
2017-12-03T00:24:25.322Z,93
2017-12-03T00:25:25.562Z,93
2017-12-03T00:26:27.410Z,93
2017-12-03T00:27:28.328Z,93
2017-12-03T00:28:26.367Z,93
2017-12-03T00:30:25.963Z,93
2017-12-03T00:31:26.228Z,93
2017-12-03T00:32:25.468Z,93
2017-12-03T00:33:26.475Z,93
2017-12-03T00:34:26.718Z,93
2017-12-03T00:35:28.301Z,93
2017-12-03T00:36:27.396Z,93
2017-12-03T00:37:27.168Z,93
2017-12-03T00:38:26.270Z,93
2017-12-03T00:39:25.474Z,93
2017-12-03T00:40:25.453Z,93
2017-12-03T00:41:26.396Z,93
2017-12-03T00:42:26.165Z,93
2017-12-03T00:43:25.842Z,93
2017-12-03T00:44:25.271Z,93
2017-12-03T00:45:26.115Z,93
2017-12-03T00:46:27.983Z,93
2017-12-03T00:47:25.960Z,93
2017-12-03T00:48:26.411Z,93
2017-12-03T00:49:25.340Z,92
2017-12-03T00:50:26.379Z,92
2017-12-03T00:51:27.080Z,92
2017-12-03T00:52:25.345Z,92
2017-12-03T00:53:26.076Z,92
2017-12-03T00:54:26.811Z,92
2017-12-03T00:56:26.165Z,92
2017-12-03T00:58:25.571Z,92
2017-12-03T00:59:25.572Z,92
2017-12-03T01:00:25.547Z,92
2017-12-03T01:01:26.434Z,92
2017-12-03T01:02:25.531Z,92
2017-12-03T01:03:25.547Z,92
2017-12-03T01:04:25.528Z,92
2017-12-03T01:05:27.632Z,92
2017-12-03T01:06:26.172Z,92
2017-12-03T01:07:25.352Z,92
2017-12-03T01:08:26.823Z,92
2017-12-03T01:09:25.834Z,92
2017-12-03T01:10:25.528Z,92
2017-12-03T01:11:26.707Z,92
2017-12-03T01:12:25.550Z,92
2017-12-03T01:13:26.201Z,92
2017-12-03T01:14:29.815Z,92
2017-12-03T01:15:25.545Z,92
2017-12-03T01:16:26.144Z,92
2017-12-03T01:17:26.969Z,92
2017-12-03T01:18:26.423Z,92
2017-12-03T01:19:29.181Z,92
2017-12-03T01:20:26.143Z,91
2017-12-03T01:21:25.533Z,91
2017-12-03T01:22:26.045Z,91
2017-12-03T01:23:25.977Z,91
2017-12-03T01:24:27.561Z,91
2017-12-03T01:25:25.555Z,91
2017-12-03T01:26:25.392Z,91
2017-12-03T01:27:27.830Z,91
2017-12-03T01:28:26.702Z,91
2017-12-03T01:29:25.876Z,91
2017-12-03T01:30:26.546Z,92
2017-12-03T01:31:25.883Z,92
2017-12-03T01:32:25.619Z,92
2017-12-03T01:33:25.407Z,92
2017-12-03T01:34:26.143Z,92
2017-12-03T01:35:25.986Z,92
2017-12-03T01:36:25.911Z,92
2017-12-03T01:37:26.826Z,92
2017-12-03T01:38:25.853Z,92
2017-12-03T01:39:42.105Z,92
2017-12-03T01:40:25.794Z,92
2017-12-03T01:41:26.362Z,92
2017-12-03T01:42:27.736Z,92
2017-12-03T01:43:26.347Z,92
2017-12-03T01:44:25.881Z,92
2017-12-03T01:45:25.948Z,92
2017-12-03T01:46:42.698Z,92
2017-12-03T01:47:25.891Z,92
2017-12-03T01:48:26.554Z,92
2017-12-03T01:49:25.915Z,92
2017-12-03T01:50:27.185Z,92
2017-12-03T01:51:25.699Z,92
2017-12-03T01:52:26.496Z,92
2017-12-03T01:53:25.630Z,92
2017-12-03T01:54:26.399Z,92
2017-12-03T01:55:26.921Z,92
2017-12-03T01:56:25.969Z,92
2017-12-03T01:57:26.614Z,92
2017-12-03T01:58:27.478Z,92
2017-12-03T01:59:26.931Z,92
2017-12-03T02:00:25.636Z,92
2017-12-03T02:01:27.660Z,92
2017-12-03T02:03:25.896Z,92
2017-12-03T02:04:25.842Z,92
2017-12-03T02:05:26.618Z,92
2017-12-03T02:06:25.391Z,92
2017-12-03T02:07:25.475Z,92
2017-12-03T02:08:27.856Z,92
2017-12-03T02:09:25.948Z,92
2017-12-03T02:10:26.572Z,92
2017-12-03T02:11:26.961Z,92
2017-12-03T02:12:25.674Z,92
2017-12-03T02:13:26.122Z,93
2017-12-03T02:14:25.645Z,93
2017-12-03T02:15:26.460Z,93
2017-12-03T02:16:25.710Z,93
2017-12-03T02:17:26.101Z,93
2017-12-03T02:18:25.968Z,93
2017-12-03T02:19:26.209Z,93
2017-12-03T02:20:26.898Z,93
2017-12-03T02:21:26.291Z,93
2017-12-03T02:22:27.709Z,93
2017-12-03T02:23:25.684Z,93
2017-12-03T02:24:25.501Z,93
2017-12-03T02:25:25.931Z,93
2017-12-03T02:26:26.730Z,93
2017-12-03T02:27:25.800Z,93
2017-12-03T02:28:29.521Z,93
2017-12-03T02:29:26.580Z,93
2017-12-03T02:30:25.952Z,93
2017-12-03T02:31:25.709Z,93
2017-12-03T02:33:25.982Z,93
2017-12-03T02:34:26.545Z,93
2017-12-03T02:35:25.715Z,93
2017-12-03T02:36:26.368Z,93
2017-12-03T02:38:26.923Z,93
2017-12-03T02:39:26.308Z,93
2017-12-03T02:40:26.178Z,93
2017-12-03T02:41:25.739Z,93
2017-12-03T02:42:26.762Z,93
2017-12-03T02:43:26.370Z,93
2017-12-03T02:44:25.536Z,93
2017-12-03T02:45:26.302Z,93
2017-12-03T02:46:27.767Z,93
2017-12-03T02:47:26.974Z,93
2017-12-03T02:48:27.943Z,93
2017-12-03T02:49:25.804Z,93
2017-12-03T02:50:25.699Z,93
2017-12-03T02:51:25.661Z,93
2017-12-03T02:52:28.255Z,93
2017-12-03T02:53:26.027Z,93
2017-12-03T02:54:25.707Z,93
2017-12-03T02:55:26.334Z,93
2017-12-03T02:56:26.385Z,93
2017-12-03T02:57:27.439Z,93
2017-12-03T02:58:25.988Z,93
2017-12-03T02:59:27.427Z,93
2017-12-03T03:00:25.758Z,93
2017-12-03T03:01:26.924Z,93
2017-12-03T03:02:25.762Z,93
2017-12-03T03:03:27.268Z,93
2017-12-03T03:05:27.306Z,93
2017-12-03T03:07:26.305Z,93
2017-12-03T03:08:27.494Z,93
2017-12-03T03:09:28.642Z,93
2017-12-03T03:10:26.963Z,93
2017-12-03T03:11:28.888Z,93
2017-12-03T03:12:26.255Z,93
2017-12-03T03:13:26.214Z,93
2017-12-03T03:14:27.070Z,93
2017-12-03T03:15:27.402Z,93
2017-12-03T03:16:28.176Z,93
2017-12-03T03:17:25.827Z,93
2017-12-03T03:18:26.289Z,93
2017-12-03T03:19:25.636Z,93
2017-12-03T03:20:26.678Z,93
2017-12-03T03:21:26.527Z,93
2017-12-03T03:22:28.982Z,93
2017-12-03T03:23:27.399Z,93
2017-12-03T03:24:26.060Z,93
2017-12-03T03:25:26.480Z,93
2017-12-03T03:27:26.736Z,93
2017-12-03T03:28:25.609Z,93
2017-12-03T03:29:26.989Z,93
2017-12-03T03:30:25.814Z,93
2017-12-03T03:32:28.364Z,93
2017-12-03T03:33:25.850Z,93
2017-12-03T03:34:25.772Z,93
2017-12-03T03:35:26.064Z,93
2017-12-03T03:37:26.236Z,93
2017-12-03T03:38:26.739Z,93
2017-12-03T03:39:26.687Z,93
2017-12-03T03:40:29.571Z,93
2017-12-03T03:41:27.394Z,93
2017-12-03T03:42:28.452Z,92
2017-12-03T03:43:27.587Z,92
2017-12-03T03:45:25.614Z,92
2017-12-03T03:46:27.263Z,92
2017-12-03T03:47:26.590Z,92
2017-12-03T03:48:29.512Z,92
2017-12-03T03:49:26.243Z,92
2017-12-03T03:50:26.498Z,92
2017-12-03T03:51:27.531Z,92
2017-12-03T03:58:58.165Z,92
2017-12-03T03:59:09.091Z,92
2017-12-03T04:02:11.491Z,92
2017-12-03T04:04:09.612Z,92
2017-12-03T04:09:22.446Z,92
2017-12-03T04:10:21.857Z,92
2017-12-03T04:11:25.953Z,92
2017-12-03T04:12:22.883Z,92
2017-12-03T04:13:22.864Z,92
2017-12-03T04:14:22.691Z,92
2017-12-03T04:15:23.437Z,92
2017-12-03T04:16:25.580Z,92
2017-12-03T04:17:23.062Z,92
2017-12-03T04:18:22.371Z,92
2017-12-03T04:19:23.828Z,92
2017-12-03T04:20:22.545Z,92
2017-12-03T04:21:22.150Z,92
2017-12-03T04:22:23.270Z,92
2017-12-03T04:23:22.215Z,92
2017-12-03T04:24:22.764Z,92
2017-12-03T04:26:23.731Z,92
2017-12-03T04:27:22.246Z,92
2017-12-03T04:28:21.904Z,92
2017-12-03T04:29:22.241Z,92
2017-12-03T04:30:24.332Z,92
2017-12-03T04:31:22.467Z,92
2017-12-03T04:32:22.224Z,92
2017-12-03T04:33:22.493Z,92
2017-12-03T04:34:22.226Z,92
2017-12-03T04:35:21.938Z,92
2017-12-03T04:36:22.141Z,92
2017-12-03T04:37:21.669Z,92
2017-12-03T04:38:22.638Z,92
2017-12-03T04:39:21.901Z,92
2017-12-03T04:40:23.252Z,92
2017-12-03T04:41:21.888Z,92
2017-12-03T04:42:21.925Z,92
2017-12-03T04:43:23.849Z,92
2017-12-03T04:44:22.570Z,92
2017-12-03T04:45:22.969Z,92
2017-12-03T04:46:24.004Z,92
2017-12-03T04:47:22.478Z,92
2017-12-03T04:48:22.468Z,92
2017-12-03T04:49:24.211Z,92
2017-12-03T04:50:22.406Z,92
2017-12-03T04:51:21.967Z,92
2017-12-03T04:52:22.502Z,92
2017-12-03T04:53:22.323Z,92
2017-12-03T04:54:22.301Z,92
2017-12-03T04:55:23.236Z,92
2017-12-03T04:56:23.203Z,92
2017-12-03T04:57:22.486Z,92
2017-12-03T04:58:23.033Z,92
2017-12-03T04:59:22.782Z,92
2017-12-03T05:00:22.451Z,92
2017-12-03T05:01:22.202Z,92
2017-12-03T05:02:22.638Z,92
2017-12-03T05:03:21.733Z,92
2017-12-03T05:04:31.919Z,92
2017-12-03T05:05:21.911Z,92
2017-12-03T05:06:23.080Z,92
2017-12-03T05:07:22.282Z,92
2017-12-03T05:08:21.976Z,92
2017-12-03T05:09:22.187Z,92
2017-12-03T05:10:22.700Z,92
2017-12-03T05:11:22.851Z,92
2017-12-03T05:12:21.961Z,92
2017-12-03T05:13:21.946Z,92
2017-12-03T05:14:23.820Z,92
2017-12-03T05:15:21.981Z,92
2017-12-03T05:16:23.974Z,92
2017-12-03T05:17:22.253Z,92
2017-12-03T05:18:21.939Z,92
2017-12-03T05:19:21.961Z,92
2017-12-03T05:20:22.247Z,92
2017-12-03T05:21:22.241Z,92
2017-12-03T05:22:22.328Z,92
2017-12-03T05:23:21.980Z,92
2017-12-03T05:24:22.921Z,92
2017-12-03T05:25:22.242Z,92
2017-12-03T05:26:22.284Z,92
2017-12-03T05:27:22.778Z,92
2017-12-03T05:28:22.685Z,92
2017-12-03T05:29:24.870Z,92
2017-12-03T05:30:22.011Z,92
2017-12-03T05:31:25.385Z,92
2017-12-03T05:32:22.937Z,92
2017-12-03T05:33:22.452Z,92
2017-12-03T05:34:23.685Z,92
2017-12-03T05:35:22.984Z,92
2017-12-03T05:36:22.273Z,92
2017-12-03T05:37:23.119Z,92
2017-12-03T05:38:22.270Z,92
2017-12-03T05:39:23.698Z,92
2017-12-03T05:40:25.038Z,92
2017-12-03T05:41:22.045Z,92
2017-12-03T05:42:23.083Z,92
2017-12-03T05:43:22.577Z,92
2017-12-03T05:44:23.202Z,93
2017-12-03T05:45:26.122Z,93
2017-12-03T05:46:21.971Z,93
2017-12-03T05:47:22.391Z,93
2017-12-03T05:48:23.165Z,93
2017-12-03T05:49:24.883Z,93
2017-12-03T05:50:22.547Z,93
2017-12-03T05:51:22.973Z,93
2017-12-03T05:52:23.267Z,93
2017-12-03T05:53:23.111Z,93
2017-12-03T05:54:23.576Z,93
2017-12-03T05:55:22.657Z,93
2017-12-03T05:56:21.991Z,93
2017-12-03T05:57:22.609Z,93
2017-12-03T05:58:21.925Z,93
2017-12-03T05:59:23.287Z,93
2017-12-03T06:00:23.738Z,93
2017-12-03T06:01:24.790Z,93
2017-12-03T06:02:22.541Z,93
2017-12-03T06:03:21.861Z,93
2017-12-03T06:04:23.660Z,93
2017-12-03T06:05:23.486Z,94
2017-12-03T06:06:21.818Z,94
2017-12-03T06:07:23.368Z,94
2017-12-03T06:08:23.049Z,94
2017-12-03T06:09:22.084Z,94
2017-12-03T06:10:22.553Z,94
2017-12-03T06:11:22.707Z,94
2017-12-03T06:12:22.885Z,94
2017-12-03T06:13:22.358Z,94
2017-12-03T06:14:23.051Z,94
2017-12-03T06:15:23.614Z,94
2017-12-03T06:16:25.071Z,94
2017-12-03T06:17:25.187Z,94
2017-12-03T06:18:22.977Z,94
2017-12-03T06:19:22.572Z,94
2017-12-03T06:20:22.608Z,94
2017-12-03T06:21:23.307Z,94
2017-12-03T06:22:22.697Z,94
2017-12-03T06:23:22.718Z,94
2017-12-03T06:24:22.761Z,94
2017-12-03T06:25:23.579Z,94
2017-12-03T06:26:22.135Z,94
2017-12-03T06:27:23.098Z,94
2017-12-03T06:28:23.086Z,94
2017-12-03T06:29:24.696Z,94
2017-12-03T06:30:23.056Z,94
2017-12-03T06:31:23.066Z,94
2017-12-03T06:32:23.139Z,94
2017-12-03T06:33:22.891Z,94
2017-12-03T06:34:23.720Z,94
2017-12-03T06:35:24.968Z,94
2017-12-03T06:36:23.405Z,94
2017-12-03T06:37:23.636Z,94
2017-12-03T06:38:22.572Z,94
2017-12-03T06:39:23.003Z,94
2017-12-03T06:40:22.949Z,94
2017-12-03T06:42:24.205Z,94
2017-12-03T06:43:22.385Z,94
2017-12-03T06:44:24.472Z,94
2017-12-03T06:45:24.982Z,94
2017-12-03T06:46:34.508Z,94
2017-12-03T06:47:24.032Z,94
2017-12-03T06:48:24.322Z,94
2017-12-03T06:49:22.845Z,94
2017-12-03T06:50:22.328Z,94
2017-12-03T06:51:22.807Z,94
2017-12-03T06:52:25.206Z,94
2017-12-03T06:53:23.598Z,94
2017-12-03T06:54:22.654Z,94
2017-12-03T06:55:22.132Z,94
2017-12-03T06:56:32.026Z,94
2017-12-03T06:57:22.129Z,94
2017-12-03T06:58:23.407Z,94
2017-12-03T06:59:22.180Z,94
2017-12-03T07:00:23.812Z,94
2017-12-03T07:01:22.375Z,94
2017-12-03T07:02:22.472Z,94
2017-12-03T07:03:21.951Z,94
2017-12-03T07:04:22.464Z,94
2017-12-03T07:06:22.217Z,94
2017-12-03T07:07:21.989Z,94
2017-12-03T07:08:22.215Z,94
2017-12-03T07:09:22.550Z,94
2017-12-03T07:10:22.154Z,94
2017-12-03T07:11:22.018Z,94
2017-12-03T07:12:22.238Z,94
2017-12-03T07:13:22.233Z,94
2017-12-03T07:14:22.595Z,94
2017-12-03T07:15:22.231Z,94
2017-12-03T07:16:22.432Z,94
2017-12-03T07:17:22.332Z,94
2017-12-03T07:18:22.334Z,95
2017-12-03T07:19:22.248Z,95
2017-12-03T07:20:22.238Z,95
2017-12-03T07:21:23.598Z,95
2017-12-03T07:22:23.001Z,95
2017-12-03T07:23:22.748Z,95
2017-12-03T07:24:22.181Z,95
2017-12-03T07:25:21.958Z,95
2017-12-03T07:26:22.169Z,95
2017-12-03T07:27:21.990Z,95
2017-12-03T07:28:22.174Z,95
2017-12-03T07:29:24.487Z,95
2017-12-03T07:30:22.525Z,95
2017-12-03T07:31:22.504Z,95
2017-12-03T07:32:22.374Z,95
2017-12-03T07:33:22.502Z,95
2017-12-03T07:34:22.408Z,95
2017-12-03T07:35:22.488Z,95
2017-12-03T07:36:22.059Z,95
2017-12-03T07:37:22.584Z,95
2017-12-03T07:38:22.300Z,95
2017-12-03T07:39:22.593Z,94
2017-12-03T07:40:22.567Z,94
2017-12-03T07:41:22.994Z,94
2017-12-03T07:42:22.279Z,94
2017-12-03T07:43:22.203Z,94
2017-12-03T07:44:22.371Z,94
2017-12-03T07:45:22.204Z,94
2017-12-03T07:46:22.827Z,94
2017-12-03T07:47:22.763Z,94
2017-12-03T07:48:22.676Z,94
2017-12-03T07:49:22.327Z,94
2017-12-03T07:50:25.988Z,94
2017-12-03T07:51:22.999Z,94
2017-12-03T07:52:22.343Z,94
2017-12-03T07:54:24.956Z,94
2017-12-03T07:55:22.193Z,94
2017-12-03T07:56:22.345Z,94
2017-12-03T07:57:22.671Z,94
2017-12-03T07:58:22.269Z,94
2017-12-03T07:59:22.582Z,94
2017-12-03T08:00:22.652Z,94
2017-12-03T08:01:32.319Z,94
2017-12-03T08:02:22.468Z,94
2017-12-03T08:04:22.544Z,94
2017-12-03T08:05:22.113Z,94
2017-12-03T08:06:22.327Z,94
2017-12-03T08:07:22.616Z,94
2017-12-03T08:08:22.595Z,94
2017-12-03T08:09:22.717Z,94
2017-12-03T08:10:22.211Z,94
2017-12-03T08:11:22.756Z,94
2017-12-03T08:12:22.723Z,94
2017-12-03T08:13:23.057Z,94
2017-12-03T08:14:22.455Z,94
2017-12-03T08:15:22.285Z,94
2017-12-03T08:16:29.523Z,94
2017-12-03T08:17:23.831Z,94
2017-12-03T08:18:25.399Z,94
2017-12-03T08:19:29.892Z,94
2017-12-03T08:20:24.563Z,94
2017-12-03T08:21:25.300Z,94
2017-12-03T08:22:23.315Z,94
2017-12-03T08:23:23.636Z,94
2017-12-03T08:24:23.863Z,94
2017-12-03T08:25:23.623Z,94
2017-12-03T08:26:24.296Z,94
2017-12-03T08:27:22.311Z,94
2017-12-03T08:28:22.612Z,94
2017-12-03T08:29:22.904Z,94
2017-12-03T08:30:22.280Z,94
2017-12-03T08:31:22.720Z,94
2017-12-03T08:32:22.221Z,94
2017-12-03T08:33:22.631Z,94
2017-12-03T08:34:22.631Z,93
2017-12-03T08:35:22.614Z,93
2017-12-03T08:36:22.437Z,93
2017-12-03T08:37:22.420Z,93
2017-12-03T08:38:22.649Z,93
2017-12-03T08:39:22.406Z,93
2017-12-03T08:40:22.899Z,93
2017-12-03T08:41:22.160Z,93
2017-12-03T08:42:22.677Z,93
2017-12-03T08:43:22.707Z,93
2017-12-03T08:44:22.680Z,93
2017-12-03T08:45:23.072Z,93
2017-12-03T08:46:22.422Z,93
2017-12-03T08:47:22.997Z,93
2017-12-03T08:48:22.471Z,93
2017-12-03T08:49:22.679Z,93
2017-12-03T08:50:24.648Z,93
2017-12-03T08:51:22.345Z,93
2017-12-03T08:52:22.351Z,92
2017-12-03T08:53:22.334Z,92
2017-12-03T08:54:22.421Z,92
2017-12-03T08:55:22.441Z,92
2017-12-03T08:56:23.291Z,92
2017-12-03T08:57:23.570Z,92
2017-12-03T08:58:22.181Z,92
2017-12-03T08:59:22.429Z,92
2017-12-03T09:00:42.880Z,92
2017-12-03T09:01:22.852Z,92
2017-12-03T09:02:22.728Z,92
2017-12-03T09:03:22.387Z,92
2017-12-03T09:04:22.251Z,92
2017-12-03T09:05:22.469Z,92
2017-12-03T09:06:22.399Z,92
2017-12-03T09:07:22.365Z,92
2017-12-03T09:08:22.353Z,92
2017-12-03T09:09:22.610Z,92
2017-12-03T09:10:22.439Z,91
2017-12-03T09:11:22.617Z,91
2017-12-03T09:12:22.622Z,91
2017-12-03T09:13:22.346Z,92
2017-12-03T09:14:22.463Z,92
2017-12-03T09:15:22.412Z,91
2017-12-03T09:16:22.424Z,91
2017-12-03T09:17:22.414Z,91
2017-12-03T09:18:22.361Z,91
2017-12-03T09:19:22.429Z,91
2017-12-03T09:20:22.180Z,91
2017-12-03T09:21:22.192Z,91
2017-12-03T09:22:22.427Z,91
2017-12-03T09:23:22.696Z,91
2017-12-03T09:24:22.680Z,91
2017-12-03T09:25:22.458Z,90
2017-12-03T09:26:22.381Z,90
2017-12-03T09:27:22.447Z,90
2017-12-03T09:28:26.002Z,90
2017-12-03T09:34:19.670Z,90
2017-12-03T09:34:47.963Z,90
2017-12-03T09:35:37.471Z,90
2017-12-03T09:36:39.528Z,90
2017-12-03T09:37:37.977Z,90
2017-12-03T09:38:39.776Z,89
2017-12-03T09:39:38.776Z,89
2017-12-03T09:41:37.943Z,89
2017-12-03T09:42:37.659Z,89
2017-12-03T09:43:40.047Z,89
2017-12-03T09:44:37.123Z,89
2017-12-03T09:45:39.511Z,89
2017-12-03T09:46:36.139Z,89
2017-12-03T09:47:38.127Z,89
2017-12-03T09:48:41.615Z,87
2017-12-03T09:49:40.184Z,87
2017-12-03T09:50:41.838Z,87
2017-12-03T09:51:41.931Z,87
2017-12-03T09:52:42.226Z,87
2017-12-03T09:53:36.727Z,87
2017-12-03T09:54:40.098Z,87
2017-12-03T09:55:39.033Z,87
2017-12-03T09:56:36.344Z,86
2017-12-03T09:57:37.003Z,86
2017-12-03T09:58:36.670Z,86
2017-12-03T09:59:36.617Z,86
2017-12-03T10:00:37.272Z,86
2017-12-03T10:01:36.360Z,85
2017-12-03T10:02:36.438Z,85
2017-12-03T10:03:36.156Z,85
2017-12-03T10:04:36.142Z,85
2017-12-03T10:05:37.926Z,85
2017-12-03T10:06:36.300Z,85
2017-12-03T10:07:36.224Z,85
2017-12-03T10:08:36.523Z,84
2017-12-03T10:09:36.101Z,84
2017-12-03T10:11:39.199Z,84
2017-12-03T10:12:36.337Z,84
2017-12-03T10:13:36.446Z,84
2017-12-03T10:14:36.195Z,84
2017-12-03T10:15:36.359Z,84
2017-12-03T10:16:36.183Z,84
2017-12-03T10:17:36.016Z,84
2017-12-03T10:18:36.133Z,84
2017-12-03T10:19:36.379Z,84
2017-12-03T10:20:36.736Z,84
2017-12-03T10:21:36.224Z,84
2017-12-03T10:22:36.598Z,84
2017-12-03T10:23:36.576Z,84
2017-12-03T10:24:36.008Z,84
2017-12-03T10:25:36.160Z,84
2017-12-03T10:26:36.503Z,84
2017-12-03T10:28:36.247Z,84
2017-12-03T10:29:38.513Z,84
2017-12-03T10:30:36.597Z,84
2017-12-03T10:31:44.827Z,84
2017-12-03T10:32:36.562Z,84
2017-12-03T10:33:38.901Z,84
2017-12-03T10:34:41.709Z,84
2017-12-03T10:35:37.344Z,84
2017-12-03T10:36:38.726Z,83
2017-12-03T10:37:40.533Z,83
2017-12-03T10:38:37.895Z,83
2017-12-03T10:40:37.553Z,83
2017-12-03T10:41:38.519Z,83
2017-12-03T10:42:35.916Z,83
2017-12-03T10:43:36.131Z,83
2017-12-03T10:44:36.490Z,82
2017-12-03T10:45:36.100Z,82
2017-12-03T10:46:36.050Z,83
2017-12-03T10:47:36.314Z,83
2017-12-03T10:48:36.251Z,83
2017-12-03T10:49:36.274Z,83
2017-12-03T10:50:36.372Z,83
2017-12-03T10:51:43.307Z,83
2017-12-03T10:52:51.806Z,82
2017-12-03T10:54:10.624Z,82
2017-12-03T10:55:00.120Z,83
2017-12-03T10:56:10.548Z,83
2017-12-03T10:57:43.323Z,83
2017-12-03T10:58:52.705Z,83
2017-12-03T10:59:40.562Z,83
2017-12-03T11:00:36.518Z,83
2017-12-03T11:01:36.159Z,83
2017-12-03T11:02:38.485Z,83
2017-12-03T11:03:46.597Z,83
2017-12-03T11:04:39.595Z,83
2017-12-03T11:05:40.062Z,83
2017-12-03T11:06:38.834Z,83
2017-12-03T11:07:39.274Z,83
2017-12-03T11:08:41.099Z,83
2017-12-03T11:09:43.734Z,83
2017-12-03T11:10:41.080Z,83
2017-12-03T11:11:40.229Z,83
2017-12-03T11:12:38.972Z,84
2017-12-03T11:14:43.432Z,84
2017-12-03T11:15:41.976Z,84
2017-12-03T11:18:15.657Z,84
2017-12-03T11:18:27.102Z,84
2017-12-03T11:20:25.787Z,84
2017-12-03T11:21:34.096Z,84
2017-12-03T11:22:36.421Z,85
2017-12-03T11:23:32.031Z,85
2017-12-03T11:24:26.853Z,85
2017-12-03T11:25:29.245Z,85
2017-12-03T11:26:32.459Z,85
2017-12-03T11:27:27.633Z,85
2017-12-03T11:28:26.628Z,85
2017-12-03T11:29:28.918Z,85
2017-12-03T11:30:35.613Z,85
2017-12-03T11:31:34.273Z,85
2017-12-03T11:32:26.641Z,85
2017-12-03T11:34:26.564Z,85
2017-12-03T11:36:25.901Z,85
2017-12-03T11:37:26.925Z,85
2017-12-03T11:38:28.258Z,85
2017-12-03T11:39:40.261Z,85
2017-12-03T11:40:26.148Z,85
2017-12-03T11:42:25.945Z,85
2017-12-03T11:44:26.171Z,85
2017-12-03T11:47:08.493Z,85
2017-12-03T11:47:39.915Z,85
2017-12-03T11:48:23.040Z,85
2017-12-03T11:49:19.167Z,85
2017-12-03T11:50:19.326Z,85
2017-12-03T11:51:18.944Z,85
2017-12-03T11:52:19.102Z,85
2017-12-03T11:53:18.889Z,85
2017-12-03T11:54:19.192Z,85
2017-12-03T11:57:32.272Z,85
2017-12-03T11:58:32.224Z,85
2017-12-03T11:59:32.241Z,85
2017-12-03T12:00:32.286Z,85
2017-12-03T12:01:31.986Z,85
2017-12-03T12:02:31.972Z,85
2017-12-03T12:03:32.049Z,85
2017-12-03T12:04:31.897Z,85
2017-12-03T12:05:32.039Z,85
2017-12-03T12:06:32.303Z,85
2017-12-03T12:07:31.808Z,85
2017-12-03T12:08:32.033Z,85
2017-12-03T12:09:32.005Z,85
2017-12-03T12:10:32.061Z,85
2017-12-03T12:11:31.869Z,85
2017-12-03T12:12:32.550Z,85
2017-12-03T12:13:33.725Z,85
2017-12-03T12:14:32.719Z,85
2017-12-03T12:16:32.472Z,85
2017-12-03T12:17:32.381Z,85
2017-12-03T12:18:32.358Z,85
2017-12-03T12:19:31.911Z,85
2017-12-03T12:20:32.047Z,85
2017-12-03T12:21:32.064Z,85
2017-12-03T12:22:32.452Z,85
2017-12-03T12:23:32.702Z,86
2017-12-03T12:24:34.665Z,86
2017-12-03T12:25:32.321Z,86
2017-12-03T12:26:31.854Z,86
2017-12-03T12:27:32.174Z,86
2017-12-03T12:28:31.820Z,86
2017-12-03T12:29:31.873Z,86
2017-12-03T12:30:31.886Z,86
2017-12-03T12:31:31.837Z,87
2017-12-03T12:32:32.067Z,87
2017-12-03T12:33:32.075Z,88
2017-12-03T12:34:32.360Z,88
2017-12-03T12:36:32.066Z,88
2017-12-03T12:37:32.327Z,88
2017-12-03T12:38:32.078Z,88
2017-12-03T12:39:31.906Z,88
2017-12-03T12:40:32.760Z,88
2017-12-03T12:41:31.923Z,89
2017-12-03T12:42:32.091Z,89
2017-12-03T12:43:32.065Z,89
2017-12-03T12:44:32.300Z,89
2017-12-03T12:45:32.025Z,89
2017-12-03T12:46:32.074Z,90
2017-12-03T12:47:31.845Z,90
2017-12-03T12:48:32.319Z,90
2017-12-03T12:49:32.046Z,90
2017-12-03T12:51:32.048Z,90
2017-12-03T12:52:32.039Z,90
2017-12-03T12:53:32.361Z,90
2017-12-03T12:54:32.068Z,91
2017-12-03T12:55:32.042Z,91
2017-12-03T12:56:32.127Z,91
2017-12-03T12:57:31.952Z,91
2017-12-03T12:58:31.843Z,91
2017-12-03T12:59:32.754Z,91
2017-12-03T13:00:32.333Z,91
2017-12-03T13:01:32.051Z,91
2017-12-03T13:03:32.085Z,91
2017-12-03T13:04:32.123Z,91
2017-12-03T13:05:32.982Z,91
2017-12-03T13:06:33.076Z,91
2017-12-03T13:07:32.150Z,91
2017-12-03T13:09:32.701Z,91
2017-12-03T13:10:31.924Z,91
2017-12-03T13:12:32.414Z,92
2017-12-03T13:13:32.841Z,92
2017-12-03T13:14:31.895Z,92
2017-12-03T13:15:32.375Z,92
2017-12-03T13:16:32.696Z,92
2017-12-03T13:17:32.427Z,92
2017-12-03T13:18:32.572Z,92
2017-12-03T13:19:48.207Z,92
2017-12-03T13:20:32.688Z,92
2017-12-03T13:21:32.865Z,92
2017-12-03T13:22:32.120Z,92
2017-12-03T13:23:31.911Z,92
2017-12-03T13:24:34.170Z,92
2017-12-03T13:25:32.169Z,92
2017-12-03T13:26:32.207Z,92
2017-12-03T13:27:32.196Z,92
2017-12-03T13:28:32.131Z,92
2017-12-03T13:29:32.778Z,92
2017-12-03T13:30:32.163Z,92
2017-12-03T13:31:31.991Z,92
2017-12-03T13:32:32.428Z,92
2017-12-03T13:33:31.965Z,92
2017-12-03T13:34:32.412Z,92
2017-12-03T13:35:33.942Z,92
2017-12-03T13:36:31.996Z,92
2017-12-03T13:37:32.191Z,92
2017-12-03T13:38:32.145Z,92
2017-12-03T13:39:33.686Z,92
2017-12-03T13:40:32.154Z,92
2017-12-03T13:41:32.099Z,92
2017-12-03T13:42:32.189Z,92
2017-12-03T13:43:32.203Z,92
2017-12-03T13:45:32.188Z,92
2017-12-03T13:46:32.204Z,92
2017-12-03T13:47:32.993Z,92
2017-12-03T13:48:32.517Z,92
2017-12-03T13:49:32.865Z,92
2017-12-03T13:50:32.530Z,92
2017-12-03T13:51:33.384Z,92
2017-12-03T13:52:34.284Z,92
2017-12-03T13:53:35.577Z,92
2017-12-03T13:54:34.397Z,92
2017-12-03T13:55:36.825Z,92
2017-12-03T13:56:32.700Z,92
2017-12-03T13:57:32.415Z,92
2017-12-03T13:58:32.951Z,92
2017-12-03T13:59:32.913Z,92
2017-12-03T14:00:32.699Z,92
2017-12-03T14:01:32.793Z,92
2017-12-03T14:02:33.463Z,92
2017-12-03T14:03:32.278Z,92
2017-12-03T14:04:31.922Z,92
2017-12-03T14:05:32.896Z,92
2017-12-03T14:06:32.585Z,92
2017-12-03T14:08:32.009Z,93
2017-12-03T14:09:49.309Z,93
2017-12-03T14:10:34.772Z,93
2017-12-03T14:11:32.474Z,93
2017-12-03T14:12:31.998Z,93
2017-12-03T14:13:32.025Z,93
2017-12-03T14:14:33.136Z,93
2017-12-03T14:15:31.992Z,93
2017-12-03T14:16:36.345Z,93
2017-12-03T14:17:33.518Z,93
2017-12-03T14:18:32.746Z,93
2017-12-03T14:19:33.416Z,93
2017-12-03T14:20:32.256Z,94
2017-12-03T14:21:35.178Z,94
2017-12-03T14:22:34.182Z,94
2017-12-03T14:23:34.321Z,94
2017-12-03T14:24:33.090Z,94
2017-12-03T14:25:38.394Z,94
2017-12-03T14:26:33.024Z,94
2017-12-03T14:27:35.025Z,94
2017-12-03T14:28:33.585Z,94
2017-12-03T14:29:44.220Z,94
2017-12-03T14:30:32.660Z,94
2017-12-03T14:31:34.741Z,94
2017-12-03T14:32:34.254Z,94
2017-12-03T14:33:33.924Z,94
2017-12-03T14:34:32.614Z,94
2017-12-03T14:35:32.548Z,94
2017-12-03T14:36:32.278Z,94
2017-12-03T14:38:32.963Z,94
2017-12-03T14:40:34.362Z,94
2017-12-03T14:41:34.227Z,94
2017-12-03T14:42:34.925Z,94
2017-12-03T14:44:32.369Z,94
2017-12-03T14:45:32.114Z,94
2017-12-03T14:46:32.907Z,94
2017-12-03T14:47:32.100Z,94
2017-12-03T14:48:34.793Z,94
2017-12-03T14:49:33.454Z,94
2017-12-03T14:50:32.900Z,94
2017-12-03T14:51:32.568Z,95
2017-12-03T14:52:32.801Z,95
2017-12-03T14:53:32.885Z,95
2017-12-03T14:54:34.850Z,95
2017-12-03T14:55:32.322Z,95
2017-12-03T14:57:35.344Z,95
2017-12-03T14:58:33.110Z,95
2017-12-03T14:59:33.994Z,95
2017-12-03T15:00:33.473Z,95
2017-12-03T15:02:34.880Z,95
2017-12-03T15:03:32.075Z,95
2017-12-03T15:04:34.240Z,95
2017-12-03T15:05:34.885Z,95
2017-12-03T15:06:32.890Z,95
2017-12-03T15:07:33.535Z,95
2017-12-03T15:08:32.376Z,95
2017-12-03T15:09:34.553Z,95
2017-12-03T15:10:32.772Z,95
2017-12-03T15:11:32.449Z,95
2017-12-03T15:12:32.405Z,95
2017-12-03T15:13:32.090Z,95
2017-12-03T15:14:32.357Z,95
2017-12-03T15:16:32.683Z,95
2017-12-03T15:17:32.197Z,95
2017-12-03T15:18:32.872Z,95
2017-12-03T15:19:32.770Z,95
2017-12-03T15:21:32.850Z,95
2017-12-03T15:22:32.304Z,95